Terminal Aerodrome Forecast
Issued by NWS

Home | Current Version | Previous Version | Text Only | Print | Product List | Glossary On
Versions: 1 2 3 4 5 6 7 8 9 10 11 12 13 14 15
000
FTUS45 KLKN 251800 AAA
TAFEKO
TAF AMD
KEKO 251814Z 2518/2618 20020G35KT 6SM BLDU BKN200
     FM251900 24025G40KT 6SM BLDU SCT080 BKN200
      TEMPO 2519/2523 2SM BLDU BKN100
     FM260600 24005KT P6SM VCSH BKN100=

USA.gov is the U.S. government's official web portal to all federal, state and local government web resources and services.